Terminal Aerodrome Forecast
Issued by NWS Mt. Holly, NJ

Home | Current Version | Previous Version | Text Only | Print | Product List | Glossary On
Versions: 1 2 3 4 5 6 7 8 9 10 11 12 13 14 15
000
FTUS41 KPHI 201900 AAA
TAFILG
TAF AMD
KILG 201956Z 2020/2118 07010G15KT P6SM SCT250
     FM202100 09010KT P6SM SCT250
     FM210300 07005KT P6SM SKC
     FM211600 15005KT P6SM SKC=

USA.gov is the U.S. government's official web portal to all federal, state and local government web resources and services.